sensor_id;sensor_type;location;lat;lon;timestamp;pressure;altitude;pressure_sealevel;temperature;humidity
68489;BME280;55481;48.764;8.936;2023-04-26T00:02:17;97030;;;6.1;80.5
68489;BME280;55481;48.764;8.936;2023-04-26T00:04:59;97030;;;6.1;80.5
68489;BME280;55481;48.764;8.936;2023-04-26T00:07:29;97030;;;6.1;80.5
68489;BME280;55481;48.764;8.936;2023-04-26T00:09:51;97030;;;6.1;80.5
68489;BME280;55481;48.764;8.936;2023-04-26T00:14:40;97030;;;6.1;80.5
68489;BME280;55481;48.764;8.936;2023-04-26T00:17:11;97030;;;6.1;80.5
68489;BME280;55481;48.764;8.936;2023-04-26T00:19:40;97030;;;6.1;80.5
68489;BME280;55481;48.764;8.936;2023-04-26T00:24:30;97040;;;6.1;80.5
68489;BME280;55481;48.764;8.936;2023-04-26T00:27:00;97040;;;6.1;80.5
68489;BME280;55481;48.764;8.936;2023-04-26T00:29:31;97040;;;6;80.5
68489;BME280;55481;48.764;8.936;2023-04-26T00:37:25;97030;;;6;80.5
68489;BME280;55481;48.764;8.936;2023-04-26T00:42:28;97040;;;6;80.5
68489;BME280;55481;48.764;8.936;2023-04-26T00:44:59;97030;;;6;80.5
68489;BME280;55481;48.764;8.936;2023-04-26T00:47:27;97040;;;6;80.5
68489;BME280;55481;48.764;8.936;2023-04-26T00:49:58;97030;;;6;80.5
68489;BME280;55481;48.764;8.936;2023-04-26T00:52:29;97030;;;5.9;80.5
68489;BME280;55481;48.764;8.936;2023-04-26T00:54:59;97030;;;6;80.5
68489;BME280;55481;48.764;8.936;2023-04-26T01:02:19;97040;;;5.7;81
68489;BME280;55481;48.764;8.936;2023-04-26T01:04:49;97040;;;5.7;81
68489;BME280;55481;48.764;8.936;2023-04-26T01:17:31;97040;;;5.6;80.5
68489;BME280;55481;48.764;8.936;2023-04-26T01:20:03;97030;;;5.5;80.5
68489;BME280;55481;48.764;8.936;2023-04-26T01:22:33;97030;;;5.6;80.5
68489;BME280;55481;48.764;8.936;2023-04-26T01:24:51;97040;;;5.5;80.5
68489;BME280;55481;48.764;8.936;2023-04-26T01:29:51;97040;;;5.4;81
68489;BME280;55481;48.764;8.936;2023-04-26T01:34:53;97040;;;5.4;80.5
68489;BME280;55481;48.764;8.936;2023-04-26T01:40:05;97040;;;5.4;80.5
68489;BME280;55481;48.764;8.936;2023-04-26T01:42:44;97040;;;5.4;80.5
68489;BME280;55481;48.764;8.936;2023-04-26T01:47:25;97030;;;5.4;80.5
68489;BME280;55481;48.764;8.936;2023-04-26T01:52:26;97030;;;5.4;80.5
68489;BME280;55481;48.764;8.936;2023-04-26T01:54:56;97020;;;5.4;80.5
68489;BME280;55481;48.764;8.936;2023-04-26T01:57:26;97020;;;5.5;80.5
68489;BME280;55481;48.764;8.936;2023-04-26T01:59:56;97020;;;5.5;80.5
68489;BME280;55481;48.764;8.936;2023-04-26T02:02:35;97020;;;5.4;80.5
68489;BME280;55481;48.764;8.936;2023-04-26T02:07:28;97020;;;5.2;81
68489;BME280;55481;48.764;8.936;2023-04-26T02:09:57;97020;;;5.2;81
68489;BME280;55481;48.764;8.936;2023-04-26T02:20:08;97040;;;4.8;81.5
68489;BME280;55481;48.764;8.936;2023-04-26T02:25:19;97040;;;4.9;81.5
68489;BME280;55481;48.764;8.936;2023-04-26T02:27:40;97040;;;5;81
68489;BME280;55481;48.764;8.936;2023-04-26T02:32:30;97040;;;5.4;80
68489;BME280;55481;48.764;8.936;2023-04-26T02:37:31;97040;;;5.4;80
68489;BME280;55481;48.764;8.936;2023-04-26T02:40:01;97030;;;5.4;80
68489;BME280;55481;48.764;8.936;2023-04-26T02:42:40;97030;;;5.4;80
68489;BME280;55481;48.764;8.936;2023-04-26T02:52:43;97040;;;5;80.5
68489;BME280;55481;48.764;8.936;2023-04-26T02:55:14;97040;;;4.8;81
68489;BME280;55481;48.764;8.936;2023-04-26T03:00:13;97050;;;4.7;81.5
68489;BME280;55481;48.764;8.936;2023-04-26T03:05:04;97050;;;4.6;81.5
68489;BME280;55481;48.764;8.936;2023-04-26T03:07:34;97050;;;4.6;81.5
68489;BME280;55481;48.764;8.936;2023-04-26T03:10:04;97040;;;4.6;81
68489;BME280;55481;48.764;8.936;2023-04-26T03:12:34;97040;;;4.7;81
68489;BME280;55481;48.764;8.936;2023-04-26T03:15:14;97040;;;4.8;81
68489;BME280;55481;48.764;8.936;2023-04-26T03:17:34;97040;;;4.7;81
68489;BME280;55481;48.764;8.936;2023-04-26T03:20:05;97040;;;4.6;81
68489;BME280;55481;48.764;8.936;2023-04-26T03:27:27;97040;;;4.6;81
68489;BME280;55481;48.764;8.936;2023-04-26T03:29:57;97050;;;4.6;81
68489;BME280;55481;48.764;8.936;2023-04-26T03:32:25;97040;;;4.6;81
68489;BME280;55481;48.764;8.936;2023-04-26T03:34:56;97040;;;4.6;81
68489;BME280;55481;48.764;8.936;2023-04-26T03:37:26;97040;;;4.6;81
68489;BME280;55481;48.764;8.936;2023-04-26T03:39:57;97030;;;4.5;81
68489;BME280;55481;48.764;8.936;2023-04-26T03:42:27;97030;;;4.6;81
68489;BME280;55481;48.764;8.936;2023-04-26T03:45:09;97030;;;4.5;81
68489;BME280;55481;48.764;8.936;2023-04-26T03:47:39;97040;;;4.4;81
68489;BME280;55481;48.764;8.936;2023-04-26T03:50:09;97040;;;4.4;80.5
68489;BME280;55481;48.764;8.936;2023-04-26T03:54:58;97040;;;4.1;81.5
68489;BME280;55481;48.764;8.936;2023-04-26T03:57:29;97050;;;4.1;81.5
68489;BME280;55481;48.764;8.936;2023-04-26T03:59:59;97050;;;4.1;81.5
68489;BME280;55481;48.764;8.936;2023-04-26T04:02:30;97040;;;4.1;81.5
68489;BME280;55481;48.764;8.936;2023-04-26T04:05:01;97040;;;4.1;81.5
68489;BME280;55481;48.764;8.936;2023-04-26T04:07:31;97050;;;4.1;81.5
68489;BME280;55481;48.764;8.936;2023-04-26T04:10:02;97050;;;4.2;81.5
68489;BME280;55481;48.764;8.936;2023-04-26T04:17:33;97040;;;4;81.5
68489;BME280;55481;48.764;8.936;2023-04-26T04:20:04;97040;;;4;81.5
68489;BME280;55481;48.764;8.936;2023-04-26T04:22:34;97040;;;4;81
68489;BME280;55481;48.764;8.936;2023-04-26T04:25:06;97040;;;4.1;81
68489;BME280;55481;48.764;8.936;2023-04-26T04:27:47;97050;;;4;81.5
68489;BME280;55481;48.764;8.936;2023-04-26T04:30:17;97050;;;4;81.5
68489;BME280;55481;48.764;8.936;2023-04-26T04:32:46;97050;;;4;81.5
68489;BME280;55481;48.764;8.936;2023-04-26T04:35:17;97050;;;4;81.5
68489;BME280;55481;48.764;8.936;2023-04-26T04:37:47;97050;;;4;81
68489;BME280;55481;48.764;8.936;2023-04-26T04:47:37;97050;;;4.1;80.5
68489;BME280;55481;48.764;8.936;2023-04-26T04:50:08;97050;;;4;80.5
68489;BME280;55481;48.764;8.936;2023-04-26T04:52:38;97060;;;3.9;81
68489;BME280;55481;48.764;8.936;2023-04-26T04:55:09;97060;;;3.9;81
68489;BME280;55481;48.764;8.936;2023-04-26T05:00:30;97060;;;4;81
68489;BME280;55481;48.764;8.936;2023-04-26T05:02:56;97070;;;4.1;80.5
68489;BME280;55481;48.764;8.936;2023-04-26T05:05:21;97070;;;4.1;80.5
68489;BME280;55481;48.764;8.936;2023-04-26T05:14:14;97070;;;4;81.5
68489;BME280;55481;48.764;8.936;2023-04-26T05:16:15;97070;;;4.1;81.5
68489;BME280;55481;48.764;8.936;2023-04-26T05:18:46;97080;;;4.1;81
68489;BME280;55481;48.764;8.936;2023-04-26T05:21:17;97080;;;4;81
68489;BME280;55481;48.764;8.936;2023-04-26T05:23:47;97090;;;4;81.5
68489;BME280;55481;48.764;8.936;2023-04-26T05:26:19;97090;;;4.1;81
68489;BME280;55481;48.764;8.936;2023-04-26T05:28:49;97090;;;4.1;81
68489;BME280;55481;48.764;8.936;2023-04-26T05:31:20;97090;;;4.1;81
68489;BME280;55481;48.764;8.936;2023-04-26T05:33:51;97100;;;4.2;81
68489;BME280;55481;48.764;8.936;2023-04-26T05:36:21;97100;;;4.3;81
68489;BME280;55481;48.764;8.936;2023-04-26T05:38:52;97100;;;4.5;80.5
68489;BME280;55481;48.764;8.936;2023-04-26T05:46:26;97100;;;4.9;80
68489;BME280;55481;48.764;8.936;2023-04-26T05:51:40;97100;;;5.1;79
68489;BME280;55481;48.764;8.936;2023-04-26T05:54:08;97100;;;5.1;79
68489;BME280;55481;48.764;8.936;2023-04-26T05:59:07;97100;;;5.3;79
68489;BME280;55481;48.764;8.936;2023-04-26T06:01:42;97100;;;5.5;79
68489;BME280;55481;48.764;8.936;2023-04-26T06:04:12;97100;;;5.5;79
68489;BME280;55481;48.764;8.936;2023-04-26T06:06:49;97090;;;5.6;78.5
68489;BME280;55481;48.764;8.936;2023-04-26T06:09:12;97100;;;5.7;79
68489;BME280;55481;48.764;8.936;2023-04-26T06:11:42;97100;;;5.8;78.5
68489;BME280;55481;48.764;8.936;2023-04-26T06:14:07;97110;;;5.6;79
68489;BME280;55481;48.764;8.936;2023-04-26T06:16:51;97110;;;5.7;79
68489;BME280;55481;48.764;8.936;2023-04-26T06:24:11;97110;;;6;78.5
68489;BME280;55481;48.764;8.936;2023-04-26T06:29:19;97110;;;6.3;78.5
68489;BME280;55481;48.764;8.936;2023-04-26T06:31:53;97110;;;6.1;78
68489;BME280;55481;48.764;8.936;2023-04-26T06:36:43;97110;;;6.2;79
68489;BME280;55481;48.764;8.936;2023-04-26T06:39:14;97110;;;6.4;78.5
68489;BME280;55481;48.764;8.936;2023-04-26T06:41:45;97110;;;6.5;78
68489;BME280;55481;48.764;8.936;2023-04-26T06:44:20;97110;;;6.5;78
68489;BME280;55481;48.764;8.936;2023-04-26T06:46:53;97100;;;6.8;78
68489;BME280;55481;48.764;8.936;2023-04-26T06:54:27;97100;;;7.2;77.5
68489;BME280;55481;48.764;8.936;2023-04-26T06:56:56;97100;;;7.6;77
68489;BME280;55481;48.764;8.936;2023-04-26T06:59:26;97100;;;7.7;76.5
68489;BME280;55481;48.764;8.936;2023-04-26T07:02:03;97100;;;7.7;77
68489;BME280;55481;48.764;8.936;2023-04-26T07:06:51;97100;;;8.1;77
68489;BME280;55481;48.764;8.936;2023-04-26T07:09:22;97090;;;8.2;77
68489;BME280;55481;48.764;8.936;2023-04-26T07:11:53;97090;;;8.3;77
68489;BME280;55481;48.764;8.936;2023-04-26T07:14:30;97090;;;8.3;76.5
68489;BME280;55481;48.764;8.936;2023-04-26T07:19:26;97090;;;8.1;77.5
68489;BME280;55481;48.764;8.936;2023-04-26T07:21:57;97090;;;8.4;77
68489;BME280;55481;48.764;8.936;2023-04-26T07:24:34;97080;;;8.5;77
68489;BME280;55481;48.764;8.936;2023-04-26T07:26:58;97080;;;8.1;77.5
68489;BME280;55481;48.764;8.936;2023-04-26T07:29:39;97080;;;8.4;77.5
68489;BME280;55481;48.764;8.936;2023-04-26T07:32:03;97070;;;8.9;76.5
68489;BME280;55481;48.764;8.936;2023-04-26T07:34:32;97070;;;9.1;76.5
68489;BME280;55481;48.764;8.936;2023-04-26T07:37:02;97070;;;8.9;76.5
68489;BME280;55481;48.764;8.936;2023-04-26T07:39:40;97080;;;8.7;77
68489;BME280;55481;48.764;8.936;2023-04-26T07:42:11;97070;;;9.2;77
68489;BME280;55481;48.764;8.936;2023-04-26T07:47:10;97060;;;9.7;76
68489;BME280;55481;48.764;8.936;2023-04-26T07:49:37;97060;;;9.9;76
68489;BME280;55481;48.764;8.936;2023-04-26T07:52:09;97060;;;9.7;75.5
68489;BME280;55481;48.764;8.936;2023-04-26T07:54:44;97070;;;9.2;77.5
68489;BME280;55481;48.764;8.936;2023-04-26T07:57:18;97070;;;9.2;77.5
68489;BME280;55481;48.764;8.936;2023-04-26T07:59:44;97070;;;9.7;77.5
68489;BME280;55481;48.764;8.936;2023-04-26T08:04:47;97070;;;10.1;76.5
68489;BME280;55481;48.764;8.936;2023-04-26T08:07:15;97070;;;10.5;75.5
68489;BME280;55481;48.764;8.936;2023-04-26T08:09:45;97070;;;10.4;76
68489;BME280;55481;48.764;8.936;2023-04-26T08:12:22;97070;;;10.7;75.5
68489;BME280;55481;48.764;8.936;2023-04-26T08:17:36;97080;;;10.7;76.5
68489;BME280;55481;48.764;8.936;2023-04-26T08:19:54;97080;;;10.4;127.5
68489;BME280;55481;48.764;8.936;2023-04-26T08:24:48;97080;;;9.7;78
68489;BME280;55481;48.764;8.936;2023-04-26T08:27:19;97090;;;9.5;78.5
68489;BME280;55481;48.764;8.936;2023-04-26T08:29:50;97090;;;9.5;78.5
68489;BME280;55481;48.764;8.936;2023-04-26T08:32:20;97090;;;9.4;78.5
68489;BME280;55481;48.764;8.936;2023-04-26T08:34:52;97090;;;9.3;79
68489;BME280;55481;48.764;8.936;2023-04-26T08:37:23;97090;;;9.4;79
68489;BME280;55481;48.764;8.936;2023-04-26T08:40:00;97100;;;9.4;78
68489;BME280;55481;48.764;8.936;2023-04-26T08:44:56;97090;;;9.6;77.5
68489;BME280;55481;48.764;8.936;2023-04-26T08:47:28;97080;;;9.9;77
68489;BME280;55481;48.764;8.936;2023-04-26T08:49:57;97080;;;10.4;76.5
68489;BME280;55481;48.764;8.936;2023-04-26T08:52:30;97080;;;10.8;75.5
68489;BME280;55481;48.764;8.936;2023-04-26T08:54:59;97080;;;10.5;76
68489;BME280;55481;48.764;8.936;2023-04-26T08:57:31;97080;;;10.6;76.5
68489;BME280;55481;48.764;8.936;2023-04-26T09:00:08;97080;;;10.8;76.5
68489;BME280;55481;48.764;8.936;2023-04-26T09:02:32;97080;;;10.9;76
68489;BME280;55481;48.764;8.936;2023-04-26T09:05:09;97080;;;11;76
68489;BME280;55481;48.764;8.936;2023-04-26T09:07:41;97080;;;11;76.5
68489;BME280;55481;48.764;8.936;2023-04-26T09:15:13;97080;;;10.3;78.5
68489;BME280;55481;48.764;8.936;2023-04-26T09:17:43;97070;;;10.8;77
68489;BME280;55481;48.764;8.936;2023-04-26T09:20:28;97070;;;10.6;77.5
68489;BME280;55481;48.764;8.936;2023-04-26T09:22:43;97070;;;10.8;77.5
68489;BME280;55481;48.764;8.936;2023-04-26T09:25:14;97070;;;11.1;77
68489;BME280;55481;48.764;8.936;2023-04-26T09:27:43;97060;;;11.3;76
68489;BME280;55481;48.764;8.936;2023-04-26T09:30:10;97060;;;11.6;75.5
68489;BME280;55481;48.764;8.936;2023-04-26T09:32:58;97060;;;11.1;76.5
68489;BME280;55481;48.764;8.936;2023-04-26T09:35:17;97060;;;11;76.5
68489;BME280;55481;48.764;8.936;2023-04-26T09:37:43;97060;;;11;76
68489;BME280;55481;48.764;8.936;2023-04-26T09:40:18;97060;;;10.5;77.5
68489;BME280;55481;48.764;8.936;2023-04-26T09:45:13;97060;;;10.9;76.5
68489;BME280;55481;48.764;8.936;2023-04-26T09:47:44;97060;;;11;76
68489;BME280;55481;48.764;8.936;2023-04-26T09:52:53;97060;;;10.5;77.5
68489;BME280;55481;48.764;8.936;2023-04-26T09:55:24;97050;;;10.7;78
68489;BME280;55481;48.764;8.936;2023-04-26T09:57:53;97060;;;10.4;77
68489;BME280;55481;48.764;8.936;2023-04-26T10:02:47;97060;;;10.4;78
68489;BME280;55481;48.764;8.936;2023-04-26T10:05:17;97060;;;10.6;77
68489;BME280;55481;48.764;8.936;2023-04-26T10:15:28;97040;;;10.8;77.5
68489;BME280;55481;48.764;8.936;2023-04-26T10:17:58;97040;;;11.2;76
68489;BME280;55481;48.764;8.936;2023-04-26T10:22:53;97040;;;11.5;75.5
68489;BME280;55481;48.764;8.936;2023-04-26T10:25:33;97040;;;11.6;75
68489;BME280;55481;48.764;8.936;2023-04-26T10:27:54;97040;;;11.3;75.5
68489;BME280;55481;48.764;8.936;2023-04-26T10:35:21;97030;;;11.2;76.5
68489;BME280;55481;48.764;8.936;2023-04-26T10:40:23;97030;;;11.3;76.5
68489;BME280;55481;48.764;8.936;2023-04-26T10:45:25;97030;;;11.7;75
68489;BME280;55481;48.764;8.936;2023-04-26T10:48:57;97030;;;11.8;75.5
68489;BME280;55481;48.764;8.936;2023-04-26T10:55:41;97020;;;12.5;73.5
68489;BME280;55481;48.764;8.936;2023-04-26T10:57:57;97020;;;12.8;73
68489;BME280;55481;48.764;8.936;2023-04-26T11:03:12;97030;;;12;75.5
68489;BME280;55481;48.764;8.936;2023-04-26T11:05:56;97030;;;12.1;76
68489;BME280;55481;48.764;8.936;2023-04-26T11:08:06;97030;;;12.2;75.5
68489;BME280;55481;48.764;8.936;2023-04-26T11:10:36;97020;;;11.9;75.5
68489;BME280;55481;48.764;8.936;2023-04-26T11:13:07;97030;;;11.3;77.5
68489;BME280;55481;48.764;8.936;2023-04-26T11:15:39;97020;;;11.3;78
68489;BME280;55481;48.764;8.936;2023-04-26T11:18:09;97020;;;11.4;77.5
68489;BME280;55481;48.764;8.936;2023-04-26T11:20:47;97010;;;12.4;76
68489;BME280;55481;48.764;8.936;2023-04-26T11:23:18;96990;;;13.6;73
68489;BME280;55481;48.764;8.936;2023-04-26T11:28:13;96980;;;13.3;72.5
68489;BME280;55481;48.764;8.936;2023-04-26T11:30:44;96980;;;13.3;73.5
68489;BME280;55481;48.764;8.936;2023-04-26T11:33:16;96970;;;14;71.5
68489;BME280;55481;48.764;8.936;2023-04-26T11:35:47;96970;;;14;71.5
68489;BME280;55481;48.764;8.936;2023-04-26T11:38:21;96950;;;14.6;70
68489;BME280;55481;48.764;8.936;2023-04-26T11:40:52;96950;;;15.1;69.5
68489;BME280;55481;48.764;8.936;2023-04-26T11:43:19;96950;;;15.2;70
68489;BME280;55481;48.764;8.936;2023-04-26T11:45:50;96940;;;16.4;67
68489;BME280;55481;48.764;8.936;2023-04-26T11:48:23;96940;;;16.4;67
68489;BME280;55481;48.764;8.936;2023-04-26T11:50:51;96950;;;14.8;72
68489;BME280;55481;48.764;8.936;2023-04-26T11:53:24;96950;;;14.1;73.5
68489;BME280;55481;48.764;8.936;2023-04-26T11:55:54;96950;;;14.3;73.5
68489;BME280;55481;48.764;8.936;2023-04-26T11:58:36;96930;;;15.5;70
68489;BME280;55481;48.764;8.936;2023-04-26T12:01:08;96940;;;15.8;68.5
68489;BME280;55481;48.764;8.936;2023-04-26T12:05:56;96950;;;15.2;71.5
68489;BME280;55481;48.764;8.936;2023-04-26T12:08:27;96940;;;14.7;72
68489;BME280;55481;48.764;8.936;2023-04-26T12:10:58;96950;;;14.5;72.5
68489;BME280;55481;48.764;8.936;2023-04-26T12:13:21;96930;;;17.3;65
68489;BME280;55481;48.764;8.936;2023-04-26T12:15:52;96930;;;17.2;64.5
68489;BME280;55481;48.764;8.936;2023-04-26T12:18:31;96930;;;17.2;65.5
68489;BME280;55481;48.764;8.936;2023-04-26T12:28:26;96940;;;15.9;69
68489;BME280;55481;48.764;8.936;2023-04-26T12:33:27;96920;;;17.6;65
68489;BME280;55481;48.764;8.936;2023-04-26T12:36:05;96930;;;16.1;67.5
68489;BME280;55481;48.764;8.936;2023-04-26T12:38:29;96930;;;15.6;69
68489;BME280;55481;48.764;8.936;2023-04-26T12:41:06;96930;;;15.6;69
68489;BME280;55481;48.764;8.936;2023-04-26T12:43:31;96930;;;15.3;69.5
68489;BME280;55481;48.764;8.936;2023-04-26T12:51:16;96930;;;14.9;69
68489;BME280;55481;48.764;8.936;2023-04-26T12:53:48;96940;;;14.2;71.5
68489;BME280;55481;48.764;8.936;2023-04-26T12:56:16;96940;;;14.2;71.5
68489;BME280;55481;48.764;8.936;2023-04-26T12:58:47;96930;;;14.8;70
68489;BME280;55481;48.764;8.936;2023-04-26T13:01:16;96930;;;14.7;70.5
68489;BME280;55481;48.764;8.936;2023-04-26T13:03:41;96930;;;14.1;72
68489;BME280;55481;48.764;8.936;2023-04-26T13:06:19;96930;;;14;72
68489;BME280;55481;48.764;8.936;2023-04-26T13:08:51;96930;;;13.7;71.5
68489;BME280;55481;48.764;8.936;2023-04-26T13:13:45;96920;;;15.3;67
68489;BME280;55481;48.764;8.936;2023-04-26T13:18:53;96910;;;17.8;61.5
68489;BME280;55481;48.764;8.936;2023-04-26T13:21:23;96900;;;17.9;61
68489;BME280;55481;48.764;8.936;2023-04-26T13:23:53;96920;;;15.5;66.5
68489;BME280;55481;48.764;8.936;2023-04-26T13:28:48;96920;;;15.4;67
68489;BME280;55481;48.764;8.936;2023-04-26T13:31:18;96900;;;18.2;61
68489;BME280;55481;48.764;8.936;2023-04-26T13:33:58;96900;;;18.5;59
68489;BME280;55481;48.764;8.936;2023-04-26T13:36:27;96910;;;17;62.5
68489;BME280;55481;48.764;8.936;2023-04-26T13:38:45;96910;;;17.1;63.5
68489;BME280;55481;48.764;8.936;2023-04-26T13:41:15;96910;;;16.8;64.5
68489;BME280;55481;48.764;8.936;2023-04-26T13:43:46;96900;;;18.1;61
68489;BME280;55481;48.764;8.936;2023-04-26T13:46:17;96900;;;19.7;58
68489;BME280;55481;48.764;8.936;2023-04-26T13:48:47;96900;;;19.8;57.5
68489;BME280;55481;48.764;8.936;2023-04-26T13:51:18;96900;;;18.7;60
68489;BME280;55481;48.764;8.936;2023-04-26T13:53:52;96900;;;17.6;62.5
68489;BME280;55481;48.764;8.936;2023-04-26T13:56:20;96900;;;16.8;64.5
68489;BME280;55481;48.764;8.936;2023-04-26T13:58:58;96910;;;16.1;66.5
68489;BME280;55481;48.764;8.936;2023-04-26T14:01:28;96910;;;15.5;67
68489;BME280;55481;48.764;8.936;2023-04-26T14:04:06;96910;;;14.7;68.5
68489;BME280;55481;48.764;8.936;2023-04-26T14:11:41;96890;;;17;64.5
68489;BME280;55481;48.764;8.936;2023-04-26T14:14:13;96890;;;17.7;62
68489;BME280;55481;48.764;8.936;2023-04-26T14:16:39;96900;;;16.5;64
68489;BME280;55481;48.764;8.936;2023-04-26T14:19:09;96900;;;16.1;65.5
68489;BME280;55481;48.764;8.936;2023-04-26T14:21:40;96910;;;15.9;65.5
68489;BME280;55481;48.764;8.936;2023-04-26T14:24:10;96900;;;15.3;66.5
68489;BME280;55481;48.764;8.936;2023-04-26T14:26:39;96900;;;14.9;67.5
68489;BME280;55481;48.764;8.936;2023-04-26T14:29:09;96910;;;14.8;68
68489;BME280;55481;48.764;8.936;2023-04-26T14:31:40;96910;;;14.2;69.5
68489;BME280;55481;48.764;8.936;2023-04-26T14:34:10;96900;;;14.1;68.5
68489;BME280;55481;48.764;8.936;2023-04-26T14:36:35;96900;;;13.9;69
68489;BME280;55481;48.764;8.936;2023-04-26T14:39:06;96910;;;13.6;69.5
68489;BME280;55481;48.764;8.936;2023-04-26T14:41:36;96900;;;13.7;69.5
68489;BME280;55481;48.764;8.936;2023-04-26T14:44:07;96900;;;14.6;67.5
68489;BME280;55481;48.764;8.936;2023-04-26T14:46:38;96890;;;15.5;65
68489;BME280;55481;48.764;8.936;2023-04-26T14:49:02;96900;;;15.4;65
68489;BME280;55481;48.764;8.936;2023-04-26T14:51:33;96900;;;14.8;66
68489;BME280;55481;48.764;8.936;2023-04-26T14:59:06;96910;;;14.2;67.5
68489;BME280;55481;48.764;8.936;2023-04-26T15:01:37;96910;;;14.5;66.5
68489;BME280;55481;48.764;8.936;2023-04-26T15:04:07;96900;;;14.6;66
68489;BME280;55481;48.764;8.936;2023-04-26T15:06:38;96900;;;14.4;66.5
68489;BME280;55481;48.764;8.936;2023-04-26T15:09:16;96910;;;13.8;67
68489;BME280;55481;48.764;8.936;2023-04-26T15:11:57;96900;;;13.6;67.5
68489;BME280;55481;48.764;8.936;2023-04-26T15:14:17;96900;;;13.2;68.5
68489;BME280;55481;48.764;8.936;2023-04-26T15:16:41;96900;;;13.1;68.5
68489;BME280;55481;48.764;8.936;2023-04-26T15:19:12;96900;;;13.4;67.5
68489;BME280;55481;48.764;8.936;2023-04-26T15:21:43;96900;;;13.6;67
68489;BME280;55481;48.764;8.936;2023-04-26T15:29:15;96890;;;14;65.5
68489;BME280;55481;48.764;8.936;2023-04-26T15:31:46;96890;;;13.6;66.5
68489;BME280;55481;48.764;8.936;2023-04-26T15:34:17;96880;;;13.5;66.5
68489;BME280;55481;48.764;8.936;2023-04-26T15:37:01;96890;;;13;67.5
68489;BME280;55481;48.764;8.936;2023-04-26T15:39:31;96890;;;12.9;68
68489;BME280;55481;48.764;8.936;2023-04-26T15:42:01;96890;;;12.9;67.5
68489;BME280;55481;48.764;8.936;2023-04-26T15:44:32;96890;;;12.8;67.5
68489;BME280;55481;48.764;8.936;2023-04-26T15:47:02;96890;;;12.6;68
68489;BME280;55481;48.764;8.936;2023-04-26T15:51:55;96890;;;12.2;68
68489;BME280;55481;48.764;8.936;2023-04-26T15:54:33;96900;;;12;68.5
68489;BME280;55481;48.764;8.936;2023-04-26T15:57:04;96900;;;12;68.5
68489;BME280;55481;48.764;8.936;2023-04-26T16:01:53;96910;;;12.1;68
68489;BME280;55481;48.764;8.936;2023-04-26T16:04:23;96900;;;12.3;67.5
68489;BME280;55481;48.764;8.936;2023-04-26T16:06:54;96900;;;12.5;66.5
68489;BME280;55481;48.764;8.936;2023-04-26T16:09:27;96900;;;12.5;66
68489;BME280;55481;48.764;8.936;2023-04-26T16:11:55;96900;;;12.7;66
68489;BME280;55481;48.764;8.936;2023-04-26T16:14:26;96900;;;12.7;66
68489;BME280;55481;48.764;8.936;2023-04-26T16:16:57;96900;;;12.6;66
68489;BME280;55481;48.764;8.936;2023-04-26T16:24:29;96900;;;12.3;66.5
68489;BME280;55481;48.764;8.936;2023-04-26T16:27:00;96900;;;12.2;67
68489;BME280;55481;48.764;8.936;2023-04-26T16:29:57;96900;;;12.2;67
68489;BME280;55481;48.764;8.936;2023-04-26T16:32:15;96900;;;12.1;67
68489;BME280;55481;48.764;8.936;2023-04-26T16:34:45;96900;;;12.2;66.5
68489;BME280;55481;48.764;8.936;2023-04-26T16:39:48;96900;;;12;66.5
68489;BME280;55481;48.764;8.936;2023-04-26T16:42:11;96890;;;12.1;66.5
68489;BME280;55481;48.764;8.936;2023-04-26T16:44:42;96900;;;11.9;66.5
68489;BME280;55481;48.764;8.936;2023-04-26T16:47:15;96900;;;11.8;67
68489;BME280;55481;48.764;8.936;2023-04-26T16:52:35;96900;;;11.6;67.5
68489;BME280;55481;48.764;8.936;2023-04-26T16:57:20;96900;;;11.9;66.5
68489;BME280;55481;48.764;8.936;2023-04-26T16:59:50;96900;;;12;66
68489;BME280;55481;48.764;8.936;2023-04-26T17:04:49;96900;;;12.1;66
68489;BME280;55481;48.764;8.936;2023-04-26T17:07:16;96910;;;11.7;66.5
68489;BME280;55481;48.764;8.936;2023-04-26T17:09:46;96910;;;11.7;66.5
68489;BME280;55481;48.764;8.936;2023-04-26T17:17:13;96900;;;11.9;66.5
68489;BME280;55481;48.764;8.936;2023-04-26T17:19:43;96910;;;11.7;67
68489;BME280;55481;48.764;8.936;2023-04-26T17:22:14;96910;;;11.6;67
68489;BME280;55481;48.764;8.936;2023-04-26T17:24:45;96910;;;11.5;67
68489;BME280;55481;48.764;8.936;2023-04-26T17:27:16;96910;;;11.4;67
68489;BME280;55481;48.764;8.936;2023-04-26T17:29:46;96910;;;11.5;67
68489;BME280;55481;48.764;8.936;2023-04-26T17:32:17;96920;;;11.4;67
68489;BME280;55481;48.764;8.936;2023-04-26T17:34:48;96920;;;11.3;67
68489;BME280;55481;48.764;8.936;2023-04-26T17:37:19;96920;;;11.3;67
68489;BME280;55481;48.764;8.936;2023-04-26T17:44:51;96930;;;11.3;66.5
68489;BME280;55481;48.764;8.936;2023-04-26T17:47:22;96920;;;11.2;67
68489;BME280;55481;48.764;8.936;2023-04-26T17:49:59;96930;;;11;67
68489;BME280;55481;48.764;8.936;2023-04-26T17:52:33;96930;;;10.9;67.5
68489;BME280;55481;48.764;8.936;2023-04-26T17:57:32;96940;;;10.8;67.5
68489;BME280;55481;48.764;8.936;2023-04-26T18:00:09;96940;;;10.7;67.5
68489;BME280;55481;48.764;8.936;2023-04-26T18:02:40;96940;;;10.6;67.5
68489;BME280;55481;48.764;8.936;2023-04-26T18:05:17;96940;;;10.6;67.5
68489;BME280;55481;48.764;8.936;2023-04-26T18:10:06;96950;;;10.4;67.5
68489;BME280;55481;48.764;8.936;2023-04-26T18:12:37;96950;;;10.4;67.5
68489;BME280;55481;48.764;8.936;2023-04-26T18:15:07;96950;;;10.3;67.5
68489;BME280;55481;48.764;8.936;2023-04-26T18:20:01;96950;;;10.2;67.5
68489;BME280;55481;48.764;8.936;2023-04-26T18:22:32;96950;;;10.1;67.5
68489;BME280;55481;48.764;8.936;2023-04-26T18:32:36;96970;;;9.9;68
68489;BME280;55481;48.764;8.936;2023-04-26T18:35:08;96970;;;10;67.5
68489;BME280;55481;48.764;8.936;2023-04-26T18:37:37;96980;;;10;67.5
68489;BME280;55481;48.764;8.936;2023-04-26T18:42:51;96980;;;9.9;67.5
68489;BME280;55481;48.764;8.936;2023-04-26T18:45:21;96980;;;9.9;67.5
68489;BME280;55481;48.764;8.936;2023-04-26T18:47:51;96980;;;9.9;67
68489;BME280;55481;48.764;8.936;2023-04-26T18:50:28;96980;;;9.9;67
68489;BME280;55481;48.764;8.936;2023-04-26T18:52:46;96990;;;9.8;67
68489;BME280;55481;48.764;8.936;2023-04-26T18:55:16;96990;;;9.8;67
68489;BME280;55481;48.764;8.936;2023-04-26T18:57:47;97000;;;9.7;67.5
68489;BME280;55481;48.764;8.936;2023-04-26T19:02:51;97000;;;9.7;67.5
68489;BME280;55481;48.764;8.936;2023-04-26T19:05:27;97000;;;9.8;67
68489;BME280;55481;48.764;8.936;2023-04-26T19:08:04;97000;;;9.8;67.5
68489;BME280;55481;48.764;8.936;2023-04-26T19:10:40;97010;;;9.8;67.5